sensor_id;sensor_type;location;lat;lon;timestamp;temperature;humidity
16136;DHT22;8173;48.354;9.248;2023-06-22T00:00:48;16.80;99.90
16136;DHT22;8173;48.354;9.248;2023-06-22T00:03:15;16.80;99.90
16136;DHT22;8173;48.354;9.248;2023-06-22T00:05:41;16.80;99.90
16136;DHT22;8173;48.354;9.248;2023-06-22T00:08:08;16.90;99.90
16136;DHT22;8173;48.354;9.248;2023-06-22T00:10:35;16.90;99.90
16136;DHT22;8173;48.354;9.248;2023-06-22T00:13:02;16.90;99.90
16136;DHT22;8173;48.354;9.248;2023-06-22T00:15:30;16.80;99.90
16136;DHT22;8173;48.354;9.248;2023-06-22T00:17:57;16.80;99.90
16136;DHT22;8173;48.354;9.248;2023-06-22T00:20:24;16.80;99.90
16136;DHT22;8173;48.354;9.248;2023-06-22T00:22:53;16.80;99.90
16136;DHT22;8173;48.354;9.248;2023-06-22T00:25:20;16.80;99.90
16136;DHT22;8173;48.354;9.248;2023-06-22T00:27:47;16.70;99.90
16136;DHT22;8173;48.354;9.248;2023-06-22T00:30:14;16.70;99.90
16136;DHT22;8173;48.354;9.248;2023-06-22T00:32:42;16.70;99.90
16136;DHT22;8173;48.354;9.248;2023-06-22T00:35:09;16.70;99.90
16136;DHT22;8173;48.354;9.248;2023-06-22T00:37:36;16.70;99.90
16136;DHT22;8173;48.354;9.248;2023-06-22T00:40:04;16.70;99.90
16136;DHT22;8173;48.354;9.248;2023-06-22T00:42:32;16.70;99.90
16136;DHT22;8173;48.354;9.248;2023-06-22T00:44:59;16.70;99.90
16136;DHT22;8173;48.354;9.248;2023-06-22T00:47:26;16.60;99.90
16136;DHT22;8173;48.354;9.248;2023-06-22T00:49:55;16.60;99.90
16136;DHT22;8173;48.354;9.248;2023-06-22T00:52:22;16.50;99.90
16136;DHT22;8173;48.354;9.248;2023-06-22T00:54:52;16.60;99.90
16136;DHT22;8173;48.354;9.248;2023-06-22T00:57:20;16.50;99.90
16136;DHT22;8173;48.354;9.248;2023-06-22T00:59:48;16.50;99.90
16136;DHT22;8173;48.354;9.248;2023-06-22T01:02:15;16.50;99.90
16136;DHT22;8173;48.354;9.248;2023-06-22T01:04:42;16.50;99.90
16136;DHT22;8173;48.354;9.248;2023-06-22T01:07:19;16.50;99.90
16136;DHT22;8173;48.354;9.248;2023-06-22T01:09:54;16.50;99.90
16136;DHT22;8173;48.354;9.248;2023-06-22T01:12:23;16.50;99.90
16136;DHT22;8173;48.354;9.248;2023-06-22T01:14:55;16.50;99.90
16136;DHT22;8173;48.354;9.248;2023-06-22T01:17:23;16.50;99.90
16136;DHT22;8173;48.354;9.248;2023-06-22T01:19:54;16.40;99.90
16136;DHT22;8173;48.354;9.248;2023-06-22T01:22:24;16.40;99.90
16136;DHT22;8173;48.354;9.248;2023-06-22T01:24:59;16.30;99.90
16136;DHT22;8173;48.354;9.248;2023-06-22T01:27:33;16.30;99.90
16136;DHT22;8173;48.354;9.248;2023-06-22T01:30:05;16.30;99.90
16136;DHT22;8173;48.354;9.248;2023-06-22T01:32:37;16.30;99.90
16136;DHT22;8173;48.354;9.248;2023-06-22T01:35:06;16.40;99.90
16136;DHT22;8173;48.354;9.248;2023-06-22T01:37:34;16.40;99.90
16136;DHT22;8173;48.354;9.248;2023-06-22T01:40:02;16.40;99.90
16136;DHT22;8173;48.354;9.248;2023-06-22T01:42:31;16.40;99.90
16136;DHT22;8173;48.354;9.248;2023-06-22T01:44:59;16.40;99.90
16136;DHT22;8173;48.354;9.248;2023-06-22T01:47:28;16.40;99.90
16136;DHT22;8173;48.354;9.248;2023-06-22T01:49:55;16.40;99.90
16136;DHT22;8173;48.354;9.248;2023-06-22T01:52:21;16.40;99.90
16136;DHT22;8173;48.354;9.248;2023-06-22T01:54:48;16.40;99.90
16136;DHT22;8173;48.354;9.248;2023-06-22T01:57:15;16.40;99.90
16136;DHT22;8173;48.354;9.248;2023-06-22T01:59:48;16.40;99.90
16136;DHT22;8173;48.354;9.248;2023-06-22T02:02:16;16.40;99.90
16136;DHT22;8173;48.354;9.248;2023-06-22T02:04:52;16.20;99.90
16136;DHT22;8173;48.354;9.248;2023-06-22T02:07:23;16.10;99.90
16136;DHT22;8173;48.354;9.248;2023-06-22T02:09:51;16.00;99.90
16136;DHT22;8173;48.354;9.248;2023-06-22T02:12:23;16.00;99.90
16136;DHT22;8173;48.354;9.248;2023-06-22T02:14:52;15.90;99.90
16136;DHT22;8173;48.354;9.248;2023-06-22T02:17:19;15.80;99.90
16136;DHT22;8173;48.354;9.248;2023-06-22T02:19:48;15.80;99.90
16136;DHT22;8173;48.354;9.248;2023-06-22T02:22:14;15.70;99.90
16136;DHT22;8173;48.354;9.248;2023-06-22T02:24:41;15.70;99.90
16136;DHT22;8173;48.354;9.248;2023-06-22T02:27:08;15.60;99.90
16136;DHT22;8173;48.354;9.248;2023-06-22T02:29:36;15.60;99.90
16136;DHT22;8173;48.354;9.248;2023-06-22T02:32:03;15.60;99.90
16136;DHT22;8173;48.354;9.248;2023-06-22T02:34:31;15.70;99.90
16136;DHT22;8173;48.354;9.248;2023-06-22T02:37:00;15.70;99.90
16136;DHT22;8173;48.354;9.248;2023-06-22T02:39:29;15.70;99.90
16136;DHT22;8173;48.354;9.248;2023-06-22T02:41:56;15.70;99.90
16136;DHT22;8173;48.354;9.248;2023-06-22T02:44:23;15.70;99.90
16136;DHT22;8173;48.354;9.248;2023-06-22T02:46:49;15.80;99.90
16136;DHT22;8173;48.354;9.248;2023-06-22T02:49:16;15.80;99.90
16136;DHT22;8173;48.354;9.248;2023-06-22T02:51:46;15.80;99.90
16136;DHT22;8173;48.354;9.248;2023-06-22T02:54:14;15.80;99.90
16136;DHT22;8173;48.354;9.248;2023-06-22T02:56:41;15.70;99.90
16136;DHT22;8173;48.354;9.248;2023-06-22T02:59:09;15.70;99.90
16136;DHT22;8173;48.354;9.248;2023-06-22T03:01:36;15.70;99.90
16136;DHT22;8173;48.354;9.248;2023-06-22T03:04:06;15.60;99.90
16136;DHT22;8173;48.354;9.248;2023-06-22T03:06:33;15.50;99.90
16136;DHT22;8173;48.354;9.248;2023-06-22T03:09:01;15.60;99.90
16136;DHT22;8173;48.354;9.248;2023-06-22T03:11:31;15.60;99.90
16136;DHT22;8173;48.354;9.248;2023-06-22T03:13:57;15.70;99.90
16136;DHT22;8173;48.354;9.248;2023-06-22T03:16:24;15.70;99.90
16136;DHT22;8173;48.354;9.248;2023-06-22T03:18:51;15.70;99.90
16136;DHT22;8173;48.354;9.248;2023-06-22T03:21:18;15.70;99.90
16136;DHT22;8173;48.354;9.248;2023-06-22T03:23:45;15.60;99.90
16136;DHT22;8173;48.354;9.248;2023-06-22T03:26:12;15.50;99.90
16136;DHT22;8173;48.354;9.248;2023-06-22T03:28:40;15.50;99.90
16136;DHT22;8173;48.354;9.248;2023-06-22T03:31:06;15.50;99.90
16136;DHT22;8173;48.354;9.248;2023-06-22T03:33:33;15.60;99.90
16136;DHT22;8173;48.354;9.248;2023-06-22T03:36:00;15.70;99.90
16136;DHT22;8173;48.354;9.248;2023-06-22T03:38:27;15.80;99.90
16136;DHT22;8173;48.354;9.248;2023-06-22T03:40:53;15.80;99.90
16136;DHT22;8173;48.354;9.248;2023-06-22T03:43:20;15.80;99.90
16136;DHT22;8173;48.354;9.248;2023-06-22T03:45:48;15.90;99.90
16136;DHT22;8173;48.354;9.248;2023-06-22T03:48:15;16.00;99.90
16136;DHT22;8173;48.354;9.248;2023-06-22T03:50:42;16.00;99.90
16136;DHT22;8173;48.354;9.248;2023-06-22T03:53:09;16.10;99.90
16136;DHT22;8173;48.354;9.248;2023-06-22T03:55:36;16.20;99.90
16136;DHT22;8173;48.354;9.248;2023-06-22T03:58:03;16.20;99.90
16136;DHT22;8173;48.354;9.248;2023-06-22T04:00:31;16.30;99.90
16136;DHT22;8173;48.354;9.248;2023-06-22T04:02:59;16.40;99.90
16136;DHT22;8173;48.354;9.248;2023-06-22T04:05:26;16.40;99.90
16136;DHT22;8173;48.354;9.248;2023-06-22T04:07:52;16.60;99.90
16136;DHT22;8173;48.354;9.248;2023-06-22T04:10:19;16.60;99.90
16136;DHT22;8173;48.354;9.248;2023-06-22T04:12:46;16.70;99.90
16136;DHT22;8173;48.354;9.248;2023-06-22T04:15:13;16.80;99.90
16136;DHT22;8173;48.354;9.248;2023-06-22T04:17:40;16.80;99.90
16136;DHT22;8173;48.354;9.248;2023-06-22T04:20:08;16.90;99.90
16136;DHT22;8173;48.354;9.248;2023-06-22T04:22:35;16.90;99.90
16136;DHT22;8173;48.354;9.248;2023-06-22T04:25:02;17.00;99.90
16136;DHT22;8173;48.354;9.248;2023-06-22T04:27:29;17.10;99.90
16136;DHT22;8173;48.354;9.248;2023-06-22T04:29:55;17.20;99.90
16136;DHT22;8173;48.354;9.248;2023-06-22T04:32:25;17.30;99.90
16136;DHT22;8173;48.354;9.248;2023-06-22T04:34:52;17.40;99.90
16136;DHT22;8173;48.354;9.248;2023-06-22T04:37:20;17.60;99.90
16136;DHT22;8173;48.354;9.248;2023-06-22T04:39:48;17.70;99.90
16136;DHT22;8173;48.354;9.248;2023-06-22T04:42:15;17.90;99.90
16136;DHT22;8173;48.354;9.248;2023-06-22T04:44:42;18.10;99.90
16136;DHT22;8173;48.354;9.248;2023-06-22T04:47:09;18.30;99.90
16136;DHT22;8173;48.354;9.248;2023-06-22T04:49:36;18.60;99.90
16136;DHT22;8173;48.354;9.248;2023-06-22T04:52:04;18.90;99.90
16136;DHT22;8173;48.354;9.248;2023-06-22T04:54:32;19.30;99.90
16136;DHT22;8173;48.354;9.248;2023-06-22T04:56:59;19.80;99.90
16136;DHT22;8173;48.354;9.248;2023-06-22T04:59:27;20.20;99.90
16136;DHT22;8173;48.354;9.248;2023-06-22T05:01:55;20.60;99.90
16136;DHT22;8173;48.354;9.248;2023-06-22T05:04:22;21.10;99.90
16136;DHT22;8173;48.354;9.248;2023-06-22T05:06:49;21.30;99.90
16136;DHT22;8173;48.354;9.248;2023-06-22T05:09:16;21.40;99.90
16136;DHT22;8173;48.354;9.248;2023-06-22T05:11:45;21.70;99.90
16136;DHT22;8173;48.354;9.248;2023-06-22T05:14:11;21.90;99.90
16136;DHT22;8173;48.354;9.248;2023-06-22T05:16:38;22.10;99.90
16136;DHT22;8173;48.354;9.248;2023-06-22T05:19:05;22.10;99.90
16136;DHT22;8173;48.354;9.248;2023-06-22T05:21:32;21.90;99.90
16136;DHT22;8173;48.354;9.248;2023-06-22T05:23:59;21.90;99.90
16136;DHT22;8173;48.354;9.248;2023-06-22T05:26:28;21.90;99.90
16136;DHT22;8173;48.354;9.248;2023-06-22T05:28:57;22.30;99.90
16136;DHT22;8173;48.354;9.248;2023-06-22T05:31:24;22.50;99.90
16136;DHT22;8173;48.354;9.248;2023-06-22T05:33:52;22.60;99.90
16136;DHT22;8173;48.354;9.248;2023-06-22T05:36:19;22.10;99.90
16136;DHT22;8173;48.354;9.248;2023-06-22T05:38:47;22.60;99.90
16136;DHT22;8173;48.354;9.248;2023-06-22T05:41:14;22.60;99.90
16136;DHT22;8173;48.354;9.248;2023-06-22T05:43:40;22.50;99.90
16136;DHT22;8173;48.354;9.248;2023-06-22T05:46:09;22.40;99.90
16136;DHT22;8173;48.354;9.248;2023-06-22T05:48:35;22.60;99.90
16136;DHT22;8173;48.354;9.248;2023-06-22T05:51:02;22.80;99.90
16136;DHT22;8173;48.354;9.248;2023-06-22T05:53:29;23.00;99.90
16136;DHT22;8173;48.354;9.248;2023-06-22T05:55:56;23.40;99.90
16136;DHT22;8173;48.354;9.248;2023-06-22T05:58:22;23.40;99.90
16136;DHT22;8173;48.354;9.248;2023-06-22T06:00:49;23.60;99.90
16136;DHT22;8173;48.354;9.248;2023-06-22T06:03:17;23.80;99.90
16136;DHT22;8173;48.354;9.248;2023-06-22T06:05:44;23.70;99.90
16136;DHT22;8173;48.354;9.248;2023-06-22T06:08:11;23.80;99.90
16136;DHT22;8173;48.354;9.248;2023-06-22T06:10:38;24.00;99.90
16136;DHT22;8173;48.354;9.248;2023-06-22T06:13:05;24.20;99.90
16136;DHT22;8173;48.354;9.248;2023-06-22T06:15:32;24.30;99.90
16136;DHT22;8173;48.354;9.248;2023-06-22T06:17:59;24.60;99.90
16136;DHT22;8173;48.354;9.248;2023-06-22T06:20:27;24.60;99.90
16136;DHT22;8173;48.354;9.248;2023-06-22T06:22:54;24.80;99.90
16136;DHT22;8173;48.354;9.248;2023-06-22T06:25:21;24.80;99.90
16136;DHT22;8173;48.354;9.248;2023-06-22T06:27:49;24.80;99.90
16136;DHT22;8173;48.354;9.248;2023-06-22T06:30:17;24.80;99.90
16136;DHT22;8173;48.354;9.248;2023-06-22T06:32:44;25.10;99.90
16136;DHT22;8173;48.354;9.248;2023-06-22T06:35:13;25.10;99.90
16136;DHT22;8173;48.354;9.248;2023-06-22T06:37:42;24.90;99.90
16136;DHT22;8173;48.354;9.248;2023-06-22T06:40:11;24.80;99.90
16136;DHT22;8173;48.354;9.248;2023-06-22T06:42:38;25.00;99.90
16136;DHT22;8173;48.354;9.248;2023-06-22T06:45:07;25.00;99.90
16136;DHT22;8173;48.354;9.248;2023-06-22T06:47:34;25.40;99.90
16136;DHT22;8173;48.354;9.248;2023-06-22T06:50:01;25.50;99.90
16136;DHT22;8173;48.354;9.248;2023-06-22T06:52:28;25.70;99.90
16136;DHT22;8173;48.354;9.248;2023-06-22T06:54:56;25.80;99.90
16136;DHT22;8173;48.354;9.248;2023-06-22T06:57:22;26.20;99.90
16136;DHT22;8173;48.354;9.248;2023-06-22T06:59:50;26.50;99.90
16136;DHT22;8173;48.354;9.248;2023-06-22T07:02:16;26.80;99.90
16136;DHT22;8173;48.354;9.248;2023-06-22T07:04:44;27.00;99.90
16136;DHT22;8173;48.354;9.248;2023-06-22T07:07:11;27.30;99.90
16136;DHT22;8173;48.354;9.248;2023-06-22T07:09:37;27.30;99.90
16136;DHT22;8173;48.354;9.248;2023-06-22T07:12:07;27.60;99.90
16136;DHT22;8173;48.354;9.248;2023-06-22T07:14:33;27.40;99.90
16136;DHT22;8173;48.354;9.248;2023-06-22T07:17:00;27.40;99.90
16136;DHT22;8173;48.354;9.248;2023-06-22T07:19:27;27.10;99.90
16136;DHT22;8173;48.354;9.248;2023-06-22T07:21:55;27.10;99.90
16136;DHT22;8173;48.354;9.248;2023-06-22T07:24:22;27.30;99.90
16136;DHT22;8173;48.354;9.248;2023-06-22T07:26:49;27.30;99.90
16136;DHT22;8173;48.354;9.248;2023-06-22T07:29:17;27.10;99.90
16136;DHT22;8173;48.354;9.248;2023-06-22T07:31:45;27.20;99.90
16136;DHT22;8173;48.354;9.248;2023-06-22T07:34:12;27.20;99.90
16136;DHT22;8173;48.354;9.248;2023-06-22T07:36:39;27.50;99.90
16136;DHT22;8173;48.354;9.248;2023-06-22T07:39:05;27.30;99.90
16136;DHT22;8173;48.354;9.248;2023-06-22T07:41:32;27.80;99.90
16136;DHT22;8173;48.354;9.248;2023-06-22T07:43:59;28.40;99.90
16136;DHT22;8173;48.354;9.248;2023-06-22T07:46:27;28.70;99.90
16136;DHT22;8173;48.354;9.248;2023-06-22T07:48:55;28.30;99.90
16136;DHT22;8173;48.354;9.248;2023-06-22T07:51:22;28.10;99.90
16136;DHT22;8173;48.354;9.248;2023-06-22T07:53:49;28.10;99.90
16136;DHT22;8173;48.354;9.248;2023-06-22T07:56:16;28.40;99.90
16136;DHT22;8173;48.354;9.248;2023-06-22T07:58:44;28.50;99.90
16136;DHT22;8173;48.354;9.248;2023-06-22T08:01:11;28.60;99.90
16136;DHT22;8173;48.354;9.248;2023-06-22T08:03:39;28.60;99.90
16136;DHT22;8173;48.354;9.248;2023-06-22T08:06:06;28.80;99.90
16136;DHT22;8173;48.354;9.248;2023-06-22T08:08:34;28.60;99.90
16136;DHT22;8173;48.354;9.248;2023-06-22T08:11:01;28.70;99.90
16136;DHT22;8173;48.354;9.248;2023-06-22T08:13:28;28.30;99.90
16136;DHT22;8173;48.354;9.248;2023-06-22T08:15:54;28.40;99.90
16136;DHT22;8173;48.354;9.248;2023-06-22T08:18:21;28.90;99.90
16136;DHT22;8173;48.354;9.248;2023-06-22T08:20:49;28.80;99.90
16136;DHT22;8173;48.354;9.248;2023-06-22T08:23:16;28.90;99.90
16136;DHT22;8173;48.354;9.248;2023-06-22T08:25:43;28.40;99.90
16136;DHT22;8173;48.354;9.248;2023-06-22T08:28:10;28.30;99.90
16136;DHT22;8173;48.354;9.248;2023-06-22T08:30:36;28.00;99.90
16136;DHT22;8173;48.354;9.248;2023-06-22T08:33:03;28.30;99.90
16136;DHT22;8173;48.354;9.248;2023-06-22T08:35:30;28.80;99.90
16136;DHT22;8173;48.354;9.248;2023-06-22T08:37:58;29.20;99.90
16136;DHT22;8173;48.354;9.248;2023-06-22T08:40:25;29.20;99.90
16136;DHT22;8173;48.354;9.248;2023-06-22T08:42:52;29.20;99.90
16136;DHT22;8173;48.354;9.248;2023-06-22T08:45:19;29.00;99.90
16136;DHT22;8173;48.354;9.248;2023-06-22T08:47:45;28.30;99.90
16136;DHT22;8173;48.354;9.248;2023-06-22T08:50:12;28.30;99.90
16136;DHT22;8173;48.354;9.248;2023-06-22T08:52:40;28.50;99.90
16136;DHT22;8173;48.354;9.248;2023-06-22T08:55:09;28.90;99.90
16136;DHT22;8173;48.354;9.248;2023-06-22T08:57:36;28.90;99.90
16136;DHT22;8173;48.354;9.248;2023-06-22T09:00:06;28.90;99.90
16136;DHT22;8173;48.354;9.248;2023-06-22T09:02:41;29.00;99.90
16136;DHT22;8173;48.354;9.248;2023-06-22T09:05:08;29.80;99.90
16136;DHT22;8173;48.354;9.248;2023-06-22T09:07:35;30.40;99.90
16136;DHT22;8173;48.354;9.248;2023-06-22T09:10:02;30.30;99.90
16136;DHT22;8173;48.354;9.248;2023-06-22T09:12:31;30.30;99.90
16136;DHT22;8173;48.354;9.248;2023-06-22T09:14:58;30.20;99.90
16136;DHT22;8173;48.354;9.248;2023-06-22T09:17:26;30.20;99.90
16136;DHT22;8173;48.354;9.248;2023-06-22T09:19:53;30.40;99.90
16136;DHT22;8173;48.354;9.248;2023-06-22T09:22:20;31.00;99.90
16136;DHT22;8173;48.354;9.248;2023-06-22T09:24:47;31.10;99.90
16136;DHT22;8173;48.354;9.248;2023-06-22T09:27:14;30.80;99.90
16136;DHT22;8173;48.354;9.248;2023-06-22T09:29:42;30.30;99.90
16136;DHT22;8173;48.354;9.248;2023-06-22T09:32:09;30.40;99.90
16136;DHT22;8173;48.354;9.248;2023-06-22T09:34:36;30.50;99.90
16136;DHT22;8173;48.354;9.248;2023-06-22T09:37:02;30.40;99.90
16136;DHT22;8173;48.354;9.248;2023-06-22T09:39:29;30.30;99.90
16136;DHT22;8173;48.354;9.248;2023-06-22T09:41:58;30.50;99.90
16136;DHT22;8173;48.354;9.248;2023-06-22T09:44:25;30.80;99.90
16136;DHT22;8173;48.354;9.248;2023-06-22T09:46:53;30.90;99.90
16136;DHT22;8173;48.354;9.248;2023-06-22T09:49:19;31.00;99.90
16136;DHT22;8173;48.354;9.248;2023-06-22T09:51:46;31.00;99.90
16136;DHT22;8173;48.354;9.248;2023-06-22T09:54:13;31.20;99.90
16136;DHT22;8173;48.354;9.248;2023-06-22T09:56:39;31.20;99.90
16136;DHT22;8173;48.354;9.248;2023-06-22T09:59:06;31.30;99.90
16136;DHT22;8173;48.354;9.248;2023-06-22T10:01:33;31.20;99.90
16136;DHT22;8173;48.354;9.248;2023-06-22T10:04:01;31.20;99.90
16136;DHT22;8173;48.354;9.248;2023-06-22T10:06:28;31.00;99.90
16136;DHT22;8173;48.354;9.248;2023-06-22T10:08:55;31.10;99.90
16136;DHT22;8173;48.354;9.248;2023-06-22T10:11:22;31.30;99.90
16136;DHT22;8173;48.354;9.248;2023-06-22T10:13:52;31.70;99.90
16136;DHT22;8173;48.354;9.248;2023-06-22T10:16:19;31.80;99.90
16136;DHT22;8173;48.354;9.248;2023-06-22T10:18:45;31.90;99.90
16136;DHT22;8173;48.354;9.248;2023-06-22T10:21:14;31.80;99.90
16136;DHT22;8173;48.354;9.248;2023-06-22T10:23:41;31.70;99.90
16136;DHT22;8173;48.354;9.248;2023-06-22T10:26:08;31.80;99.90
16136;DHT22;8173;48.354;9.248;2023-06-22T10:28:34;32.30;99.90
16136;DHT22;8173;48.354;9.248;2023-06-22T10:31:01;32.70;99.90
16136;DHT22;8173;48.354;9.248;2023-06-22T10:33:28;33.00;99.90
16136;DHT22;8173;48.354;9.248;2023-06-22T10:35:55;33.30;99.90
16136;DHT22;8173;48.354;9.248;2023-06-22T10:38:23;33.30;99.90
16136;DHT22;8173;48.354;9.248;2023-06-22T10:40:50;33.20;99.90
16136;DHT22;8173;48.354;9.248;2023-06-22T10:43:16;33.20;99.90
16136;DHT22;8173;48.354;9.248;2023-06-22T10:45:43;33.00;99.90
16136;DHT22;8173;48.354;9.248;2023-06-22T10:48:10;32.70;99.90
16136;DHT22;8173;48.354;9.248;2023-06-22T10:50:37;32.60;99.90
16136;DHT22;8173;48.354;9.248;2023-06-22T10:53:03;32.00;99.90
16136;DHT22;8173;48.354;9.248;2023-06-22T10:55:31;31.60;99.90
16136;DHT22;8173;48.354;9.248;2023-06-22T10:57:58;32.10;99.90
16136;DHT22;8173;48.354;9.248;2023-06-22T11:00:25;32.20;99.90
16136;DHT22;8173;48.354;9.248;2023-06-22T11:02:51;32.60;99.90
16136;DHT22;8173;48.354;9.248;2023-06-22T11:05:18;32.70;99.90
16136;DHT22;8173;48.354;9.248;2023-06-22T11:07:45;33.00;99.90
16136;DHT22;8173;48.354;9.248;2023-06-22T11:10:12;33.00;99.90
16136;DHT22;8173;48.354;9.248;2023-06-22T11:12:40;33.30;99.80
16136;DHT22;8173;48.354;9.248;2023-06-22T11:15:08;32.90;99.90
16136;DHT22;8173;48.354;9.248;2023-06-22T11:17:35;32.30;99.10
16136;DHT22;8173;48.354;9.248;2023-06-22T11:20:03;32.30;99.50
16136;DHT22;8173;48.354;9.248;2023-06-22T11:22:36;32.20;99.90
16136;DHT22;8173;48.354;9.248;2023-06-22T11:25:03;31.90;99.70
16136;DHT22;8173;48.354;9.248;2023-06-22T11:27:30;31.70;99.90
16136;DHT22;8173;48.354;9.248;2023-06-22T11:29:58;31.30;99.90
16136;DHT22;8173;48.354;9.248;2023-06-22T11:32:24;31.10;99.90
16136;DHT22;8173;48.354;9.248;2023-06-22T11:34:51;31.00;99.40
16136;DHT22;8173;48.354;9.248;2023-06-22T11:37:18;30.70;99.90
16136;DHT22;8173;48.354;9.248;2023-06-22T11:39:44;30.50;99.90
16136;DHT22;8173;48.354;9.248;2023-06-22T11:42:11;30.40;99.90
16136;DHT22;8173;48.354;9.248;2023-06-22T11:44:38;30.60;99.90
16136;DHT22;8173;48.354;9.248;2023-06-22T11:47:06;30.80;99.90
16136;DHT22;8173;48.354;9.248;2023-06-22T11:49:33;31.60;99.90
16136;DHT22;8173;48.354;9.248;2023-06-22T11:51:59;32.20;99.90
16136;DHT22;8173;48.354;9.248;2023-06-22T11:54:26;32.50;99.90
16136;DHT22;8173;48.354;9.248;2023-06-22T11:56:53;32.60;99.90
16136;DHT22;8173;48.354;9.248;2023-06-22T11:59:19;32.60;99.90
16136;DHT22;8173;48.354;9.248;2023-06-22T12:01:47;32.30;99.90
16136;DHT22;8173;48.354;9.248;2023-06-22T12:04:17;31.90;99.90
16136;DHT22;8173;48.354;9.248;2023-06-22T12:06:44;31.50;99.90
16136;DHT22;8173;48.354;9.248;2023-06-22T12:09:10;31.50;99.90
16136;DHT22;8173;48.354;9.248;2023-06-22T12:11:39;31.40;99.90
16136;DHT22;8173;48.354;9.248;2023-06-22T12:14:05;31.20;99.90
16136;DHT22;8173;48.354;9.248;2023-06-22T12:16:32;30.90;99.90
16136;DHT22;8173;48.354;9.248;2023-06-22T12:18:59;30.90;99.90
16136;DHT22;8173;48.354;9.248;2023-06-22T12:21:27;30.90;99.90
16136;DHT22;8173;48.354;9.248;2023-06-22T12:23:54;30.80;99.90
16136;DHT22;8173;48.354;9.248;2023-06-22T12:26:21;30.60;99.90
16136;DHT22;8173;48.354;9.248;2023-06-22T12:28:48;30.30;99.90
16136;DHT22;8173;48.354;9.248;2023-06-22T12:31:15;29.80;99.90
16136;DHT22;8173;48.354;9.248;2023-06-22T12:33:41;29.40;99.90
16136;DHT22;8173;48.354;9.248;2023-06-22T12:36:08;29.00;99.90
16136;DHT22;8173;48.354;9.248;2023-06-22T12:38:36;28.80;99.90
16136;DHT22;8173;48.354;9.248;2023-06-22T12:41:03;28.70;99.90
16136;DHT22;8173;48.354;9.248;2023-06-22T12:43:29;28.60;99.90
16136;DHT22;8173;48.354;9.248;2023-06-22T12:45:56;28.70;99.90
16136;DHT22;8173;48.354;9.248;2023-06-22T12:48:23;28.80;99.90
16136;DHT22;8173;48.354;9.248;2023-06-22T12:50:50;28.80;99.90
16136;DHT22;8173;48.354;9.248;2023-06-22T12:53:17;28.80;99.90
16136;DHT22;8173;48.354;9.248;2023-06-22T12:55:45;28.90;99.90
16136;DHT22;8173;48.354;9.248;2023-06-22T12:58:12;29.00;99.90
16136;DHT22;8173;48.354;9.248;2023-06-22T13:00:39;29.00;99.90
16136;DHT22;8173;48.354;9.248;2023-06-22T13:03:05;29.20;99.90
16136;DHT22;8173;48.354;9.248;2023-06-22T13:05:32;29.10;99.90
16136;DHT22;8173;48.354;9.248;2023-06-22T13:08:00;29.10;99.90
16136;DHT22;8173;48.354;9.248;2023-06-22T13:10:27;29.70;99.90
16136;DHT22;8173;48.354;9.248;2023-06-22T13:12:55;30.40;99.90
16136;DHT22;8173;48.354;9.248;2023-06-22T13:15:26;30.70;99.90
16136;DHT22;8173;48.354;9.248;2023-06-22T13:17:53;30.80;99.90
16136;DHT22;8173;48.354;9.248;2023-06-22T13:20:20;31.10;99.90
16136;DHT22;8173;48.354;9.248;2023-06-22T13:22:46;31.40;99.90
16136;DHT22;8173;48.354;9.248;2023-06-22T13:25:13;31.30;99.90
16136;DHT22;8173;48.354;9.248;2023-06-22T13:27:44;30.70;99.90
16136;DHT22;8173;48.354;9.248;2023-06-22T13:30:13;30.70;99.90
16136;DHT22;8173;48.354;9.248;2023-06-22T13:32:39;30.40;99.90
16136;DHT22;8173;48.354;9.248;2023-06-22T13:35:08;30.00;99.90
16136;DHT22;8173;48.354;9.248;2023-06-22T13:37:34;29.50;99.90
16136;DHT22;8173;48.354;9.248;2023-06-22T13:40:01;29.40;99.90
16136;DHT22;8173;48.354;9.248;2023-06-22T13:42:30;29.30;99.90
16136;DHT22;8173;48.354;9.248;2023-06-22T13:44:57;29.30;99.90
16136;DHT22;8173;48.354;9.248;2023-06-22T13:47:25;29.50;99.90
16136;DHT22;8173;48.354;9.248;2023-06-22T13:49:52;29.40;99.90
16136;DHT22;8173;48.354;9.248;2023-06-22T13:52:18;29.40;99.90
16136;DHT22;8173;48.354;9.248;2023-06-22T13:54:45;29.30;99.90
16136;DHT22;8173;48.354;9.248;2023-06-22T13:57:12;29.40;99.90
16136;DHT22;8173;48.354;9.248;2023-06-22T13:59:38;29.40;99.90
16136;DHT22;8173;48.354;9.248;2023-06-22T14:02:06;29.50;99.90
16136;DHT22;8173;48.354;9.248;2023-06-22T14:04:34;29.30;99.90
16136;DHT22;8173;48.354;9.248;2023-06-22T14:07:00;29.30;99.90
16136;DHT22;8173;48.354;9.248;2023-06-22T14:09:27;29.20;99.90
16136;DHT22;8173;48.354;9.248;2023-06-22T14:11:54;29.20;99.90
16136;DHT22;8173;48.354;9.248;2023-06-22T14:14:21;29.20;99.90
16136;DHT22;8173;48.354;9.248;2023-06-22T14:16:48;29.30;99.90
16136;DHT22;8173;48.354;9.248;2023-06-22T14:19:17;29.40;99.90
16136;DHT22;8173;48.354;9.248;2023-06-22T14:21:45;29.40;99.90
16136;DHT22;8173;48.354;9.248;2023-06-22T14:24:12;29.60;99.90
16136;DHT22;8173;48.354;9.248;2023-06-22T14:26:39;29.90;99.90
16136;DHT22;8173;48.354;9.248;2023-06-22T14:29:05;30.20;99.90
16136;DHT22;8173;48.354;9.248;2023-06-22T14:31:32;30.80;99.90
16136;DHT22;8173;48.354;9.248;2023-06-22T14:33:59;30.80;99.90
16136;DHT22;8173;48.354;9.248;2023-06-22T14:36:26;30.50;99.90
16136;DHT22;8173;48.354;9.248;2023-06-22T14:38:54;30.00;99.90
16136;DHT22;8173;48.354;9.248;2023-06-22T14:41:21;29.60;99.90
16136;DHT22;8173;48.354;9.248;2023-06-22T14:43:49;29.50;99.90
16136;DHT22;8173;48.354;9.248;2023-06-22T14:46:16;29.40;99.90
16136;DHT22;8173;48.354;9.248;2023-06-22T14:48:44;29.20;99.90
16136;DHT22;8173;48.354;9.248;2023-06-22T14:51:11;29.30;99.90
16136;DHT22;8173;48.354;9.248;2023-06-22T14:53:38;29.50;99.90
16136;DHT22;8173;48.354;9.248;2023-06-22T14:56:06;29.50;99.90
16136;DHT22;8173;48.354;9.248;2023-06-22T14:58:33;29.40;99.90
16136;DHT22;8173;48.354;9.248;2023-06-22T15:01:01;29.50;99.90
16136;DHT22;8173;48.354;9.248;2023-06-22T15:03:28;29.70;99.90
16136;DHT22;8173;48.354;9.248;2023-06-22T15:05:56;29.60;99.90
16136;DHT22;8173;48.354;9.248;2023-06-22T15:08:23;29.50;99.90
16136;DHT22;8173;48.354;9.248;2023-06-22T15:10:51;29.40;99.90
16136;DHT22;8173;48.354;9.248;2023-06-22T15:13:19;29.10;99.90
16136;DHT22;8173;48.354;9.248;2023-06-22T15:15:46;29.00;99.90
16136;DHT22;8173;48.354;9.248;2023-06-22T15:18:13;28.90;99.90
16136;DHT22;8173;48.354;9.248;2023-06-22T15:20:40;28.70;99.90
16136;DHT22;8173;48.354;9.248;2023-06-22T15:23:10;28.40;99.90
16136;DHT22;8173;48.354;9.248;2023-06-22T15:25:37;28.00;99.90
16136;DHT22;8173;48.354;9.248;2023-06-22T15:28:03;27.70;99.90
16136;DHT22;8173;48.354;9.248;2023-06-22T15:30:31;27.50;99.90
16136;DHT22;8173;48.354;9.248;2023-06-22T15:32:58;27.50;99.90
16136;DHT22;8173;48.354;9.248;2023-06-22T15:35:25;27.50;99.90
16136;DHT22;8173;48.354;9.248;2023-06-22T15:37:52;27.40;99.90
16136;DHT22;8173;48.354;9.248;2023-06-22T15:40:18;27.30;99.90
16136;DHT22;8173;48.354;9.248;2023-06-22T15:42:45;27.10;99.90
16136;DHT22;8173;48.354;9.248;2023-06-22T15:45:13;26.90;99.90